x

Muskegon, Mi (mkgm4) Weather Station

7:50pm - Sun 7th Feb 2016 All times are CST. -6 hours from GMT.

  • Wind
    18mph
  • Air Temp 37°f
  • Sea Pressure 1006.8mb
  • Muskegon, Mi
  • Muskegon, Mi

More Historic Weather Station data

Upgrade to MSW Pro to gain access to the past 30 days of data for over 8000 Wavebouys and Weather Stations around the globe.

Join Pro

Comparision Forecast

View Surf forecast
   
Sun 02/07 7:50pm 18
mph
1006.8mb 37f
7:40pm 18 20 mph 1006.8mb 37f
7:30pm 17 18 mph 1007.2mb 36f
7:20pm 17
mph
1007.2mb 37f
7:10pm 16 17 mph 1007.1mb 37f
7:00pm 20 21 mph 1007.2mb 37f
6:50pm 18 20 mph 1007.3mb 37f
6:40pm 20 21 mph 1007.3mb 37f
6:30pm 21
mph
1007.5mb 37f
6:20pm 21 22 mph 1007.6mb 37f
6:10pm 20 21 mph 1007.6mb 37f
6:00pm 20 21 mph 1007.6mb 37f
5:50pm 16 17 mph 1007.5mb 37f
5:40pm 14 15 mph 1007.3mb 36f
5:30pm 10 11 mph 1007.5mb 35f
5:20pm 8 9 mph 1007.5mb 36f
5:10pm 10 13 mph 1007.5mb 36f
5:00pm 10 13 mph 1007.6mb 37f
4:50pm 13 14 mph 1007.6mb 37f
4:40pm 13
mph
1007.7mb 36f
4:30pm 13
mph
1007.7mb 36f
4:20pm 13
mph
1007.6mb 36f
4:10pm 15 16 mph 1007.5mb 36f
4:00pm 15 16 mph 1007.4mb 35f
3:50pm 15 16 mph 1007.2mb 36f
3:40pm 15
mph
1007.1mb 36f
3:30pm 13 14 mph 1007.1mb 36f
3:20pm 14 16 mph 1007.1mb 37f
3:10pm 17
mph
1007.1mb 37f
3:00pm 17
mph
1007.3mb 37f
2:50pm 17 18 mph 1007.4mb 37f
2:40pm 16 17 mph 1007.4mb 36f
2:30pm 17 18 mph 1007.3mb 36f
2:20pm 17 18 mph 1007.3mb 36f
2:10pm 16 17 mph 1007.2mb 37f
2:00pm 17 18 mph 1007.2mb 37f
1:50pm 18 20 mph 1007.2mb 37f
1:40pm 20 21 mph 1007.2mb 37f
1:30pm 21 22 mph 1007.2mb 37f
1:20pm 21 23 mph 1007.2mb 37f
1:10pm 21 22 mph 1007.4mb 37f
1:00pm 18 20 mph 1007.7mb 37f
12:50pm 20 21 mph 1007.6mb 37f
12:40pm 20 21 mph 1007.8mb 37f
12:30pm 20 21 mph 1007.9mb 37f
12:20pm 20 21 mph 1008.2mb 37f
12:10pm 18 20 mph 1008.2mb 37f
12:00pm 18 20 mph 1008.3mb 37f
11:50am 21 22 mph 1008.5mb 37f
11:40am 21 22 mph 1008.8mb 37f
11:30am 21 22 mph 1008.8mb 37f
11:20am 21 23 mph 1008.8mb 38f
11:10am 22 23 mph 1009mb 38f
11:00am 20 21 mph 1009.4mb 38f
10:50am 21 23 mph 1009.4mb 38f
10:40am 21 23 mph 1009.8mb 37f
10:30am 22 24 mph 1009.8mb 37f
10:20am 21 24 mph 1009.9mb 37f
10:10am 21 23 mph 1009.8mb 37f
10:00am 22 23 mph 1009.8mb 37f
9:50am 23 25 mph 1009.6mb 37f
9:40am 23 24 mph 1009.8mb 37f
9:30am 25 28 mph 1009.4mb 37f
9:20am 24 25 mph 1009.9mb 37f
9:10am 24 26 mph 1010mb 37f
9:00am 24 25 mph 1010.2mb 37f
8:50am 23 24 mph 1010.4mb 36f
8:40am 22 23 mph 1010.5mb 36f
8:30am 22 23 mph 1010.6mb 36f
8:20am 21 22 mph 1011mb 36f
8:10am 20 21 mph 1011.2mb 35f
8:00am 20
mph
1011.4mb 35f
7:50am 21 23 mph 1011.5mb 35f
7:40am 20 21 mph 1011.6mb 35f
7:30am 18 20 mph 1011.5mb 35f
7:20am 21 22 mph 1011.6mb 34f
7:10am 20 22 mph 1012mb 34f
7:00am 21 22 mph 1012.4mb 34f
6:50am 20 21 mph 1012.4mb 34f
6:40am 18 20 mph 1012.5mb 35f
6:30am 20 22 mph 1012.7mb 35f
6:20am 21 22 mph 1012.9mb 34f
6:10am 20 21 mph 1012.9mb 34f
6:00am 21 22 mph 1013mb 34f
5:50am 22 23 mph 1013.1mb 34f
5:40am 21 22 mph 1013.4mb 34f
5:30am 21 22 mph 1013.5mb 34f
5:20am 20 22 mph 1013.4mb 34f
5:10am 18 21 mph 1013.4mb 34f
5:00am 18 22 mph 1013.4mb 34f
4:50am 20 22 mph 1014mb 34f
4:40am 20 22 mph 1014.1mb 34f
4:30am 18 20 mph 1014.4mb 34f
4:20am 18 20 mph 1014.6mb 33f
4:10am 17 18 mph 1014.8mb 33f
4:00am 16 17 mph 1015mb 34f
3:50am 17 20 mph 1015.2mb 34f
3:40am 20 21 mph 1015.1mb 34f
3:30am 18 20 mph 1015.4mb 34f
3:20am 18 20 mph 1015.6mb 34f
3:10am 18 20 mph 1015.7mb 34f
3:00am 18 20 mph 1016.1mb 34f
2:50am 16 18 mph 1016.2mb 34f
2:40am 15 16 mph 1016.7mb 34f
2:30am 14
mph
1016.9mb 34f
2:20am 13 14 mph 1017.2mb 34f
2:10am 11 13 mph 1017.3mb 34f
2:00am 10 11 mph 1017.5mb 34f
1:50am 13
mph
1017.6mb 34f
1:40am 13
mph
1017.7mb 34f
1:30am 13
mph
1017.7mb 34f
1:20am 13 14 mph 1017.8mb 34f
1:10am 13
mph
1018.1mb 34f
1:00am 13
mph
1018.3mb 34f
12:50am 14
mph
1018.5mb 34f
12:40am 15 16 mph 1018.4mb 35f
12:30am 15 16 mph 1018.4mb 35f
12:20am 16
mph
1018.4mb 35f
12:10am 16 17 mph 1018.7mb 35f
12:00am 15 16 mph 1018.9mb 35f
Sat 02/06 11:50pm 16 17 mph 1018.9mb 35f
11:40pm 16 17 mph 1018.9mb 35f
11:30pm 14 15 mph 1019mb 34f
11:20pm 14
mph
1019.1mb 34f
11:10pm 15 16 mph 1019.1mb 34f
11:00pm 13
mph
1019.2mb 34f
10:50pm 14
mph
1019.2mb 34f
10:40pm 15 16 mph 1019.5mb 33f
10:30pm 16
mph
1019.5mb 33f
10:20pm 16
mph
1019.5mb 34f
10:10pm 13 14 mph 1019.7mb 33f
10:00pm 14 15 mph 1019.9mb 33f
9:50pm 13
mph
1020.1mb 33f
9:40pm 13 14 mph 1020.3mb 33f
9:30pm 10 11 mph 1020.5mb 33f
9:20pm 13
mph
1020.7mb 33f
9:10pm 10 11 mph 1021mb 33f
9:00pm 10
mph
1021mb 33f
8:50pm 11 13 mph 1021.2mb 33f
8:40pm 10 11 mph 1021.3mb 33f
8:30pm 9
mph
1021.3mb 33f
8:20pm 10
mph
1021.4mb 34f
8:10pm 11
mph
1021.6mb 34f
8:00pm 9
mph
1021.6mb 34f
7:50pm 9 10 mph 1021.8mb 34f
7:40pm 10 11 mph 1021.7mb 34f
7:30pm 11
mph
1021.9mb 34f
7:20pm 11 13 mph 1021.9mb 34f
7:10pm 13 14 mph 1022.2mb 34f
7:00pm 13 14 mph 1022.4mb 34f
6:50pm 14 15 mph 1022.4mb 34f
6:40pm 15 16 mph 1022.3mb 34f
6:30pm 14 16 mph 1022.3mb 34f
6:20pm 13 15 mph 1022.3mb 34f
6:10pm 13 14 mph 1022.5mb 34f
6:00pm 16 17 mph 1022.8mb 34f
5:50pm 15 16 mph 1022.8mb 34f
5:40pm 15
mph
1022.7mb 33f
5:30pm 16 17 mph 1022.7mb 33f
5:20pm 15
mph
1022.6mb 33f
5:10pm 17 18 mph 1022.6mb 34f
5:00pm 20 21 mph 1022.6mb 34f
4:50pm 16 18 mph 1022.6mb 34f
4:40pm 16
mph
1022.5mb 34f
4:30pm 17 18 mph 1022.5mb 34f
4:20pm 16 18 mph 1022.4mb 34f
4:10pm 18 21 mph 1022.4mb 34f
4:00pm 20 22 mph 1022.4mb 34f
3:50pm 17 20 mph 1022.4mb 34f
3:40pm 20 22 mph 1022.5mb 34f
3:30pm 20 21 mph 1022.7mb 34f
3:20pm 18 20 mph 1022.8mb 34f
3:10pm 16 20 mph 1022.8mb 34f
3:00pm 17 18 mph 1022.8mb 34f
2:50pm 17 21 mph 1022.8mb 34f
2:40pm 18 20 mph 1022.8mb 34f
2:30pm 18 20 mph 1022.8mb 34f
2:20pm 18 21 mph 1022.7mb 33f
2:10pm 18 20 mph 1022.8mb 33f
2:00pm 20 22 mph 1022.8mb 33f
1:50pm 21 23 mph 1022.8mb 33f
1:40pm 18 20 mph 1022.8mb 33f
1:30pm 17 21 mph 1023mb 33f
1:20pm 18 21 mph 1023mb 33f
1:10pm 17 20 mph 1023.4mb 33f
1:00pm 18 21 mph 1023.3mb 33f
12:50pm 18 20 mph 1023.5mb 33f
12:40pm 20 21 mph 1023.5mb 33f
12:30pm 18 21 mph 1023.5mb 33f
12:20pm 18 20 mph 1023.7mb 33f
12:10pm 20 21 mph 1023.7mb 33f
12:00pm 18 21 mph 1023.7mb 33f
11:50am 18 21 mph 1024mb 33f
11:40am 18 21 mph 1024.2mb 33f
11:30am 20 23 mph 1024.5mb 33f
11:20am 18 21 mph 1024.5mb 33f
11:10am 18 20 mph 1024.8mb 33f
11:00am 18 21 mph 1024.8mb 33f
10:50am 18 21 mph 1024.9mb 33f
10:40am 18 20 mph 1025mb 33f
10:30am 20 21 mph 1025mb 33f
10:20am 20 22 mph 1025mb 33f
10:10am 21 22 mph 1025mb 33f
10:00am 20 22 mph 1025mb 33f
9:50am 21 23 mph 1025mb 33f
9:40am 20 22 mph 1025.2mb 33f
9:30am 21 22 mph 1025.2mb 33f
9:20am 20 21 mph 1025.2mb 33f
9:10am 20 21 mph 1025.2mb 33f
9:00am 22 24 mph 1025.2mb 33f
8:50am 24 25 mph 1025.1mb 33f
8:40am 21 23 mph 1025.1mb 33f
8:30am 22 24 mph 1025.1mb 33f
8:20am 20 25 mph 1025.4mb 33f
8:10am 22 23 mph 1025.3mb 33f
8:00am 22 24 mph 1025.4mb 33f
7:50am 20 21 mph 1025.4mb 33f
7:40am 17 20 mph 1025.4mb 33f
7:30am 21 22 mph 1025.3mb 33f
7:20am 21 22 mph 1025.3mb 33f
7:10am 20 21 mph 1025.4mb 33f
7:00am 20 22 mph 1025.4mb 33f
6:50am 20 22 mph 1025.4mb 33f
6:40am 21 22 mph 1025.3mb 33f
6:30am 20 21 mph 1025.5mb 33f
6:20am 21 22 mph 1025.5mb 33f
6:10am 21 23 mph 1025.5mb 33f
6:00am 21 23 mph 1025.6mb 33f
5:50am 20 23 mph 1025.6mb 33f
5:40am 17 20 mph 1025.7mb 33f
5:30am 18 20 mph 1025.6mb 33f
5:20am 18 21 mph 1025.7mb 33f
5:10am 21
mph
1025.7mb 33f
5:00am 17 18 mph 1025.8mb 33f
4:50am 18 21 mph 1026mb 33f
4:40am 18 20 mph 1025.8mb 33f
4:30am 16 17 mph 1025.8mb 33f
4:20am 17 18 mph 1026mb 33f
4:10am 17 18 mph 1026.1mb 33f
4:00am 17 20 mph 1026.1mb 33f
3:50am 21 23 mph 1026mb 33f
3:40am 18 21 mph 1026mb 33f
3:30am 20 21 mph 1025.8mb 33f
3:20am 18 20 mph 1025.7mb 33f
3:10am 18 21 mph 1025.7mb 33f
3:00am 18 20 mph 1025.7mb 33f
2:50am 18 20 mph 1026mb 32f
2:40am 17 18 mph 1026.1mb 32f
2:30am 16 17 mph 1026.3mb 32f
2:20am 16 17 mph 1026.4mb 32f
2:10am 16 17 mph 1026.5mb 32f
2:00am 15 16 mph 1026.5mb 32f
1:50am 15 16 mph 1026.5mb 32f
1:40am 14 15 mph 1026.7mb 32f
1:30am 13 14 mph 1026.6mb 32f
1:20am 11 13 mph 1026.4mb 32f
1:10am 11 13 mph 1026.4mb 32f
1:00am 10 11 mph 1026.5mb 32f
12:50am 7 8 mph 1026.7mb 32f
12:40am 8
mph
1026.9mb 31f
12:30am 8 9 mph 1026.9mb 31f
12:20am 7 8 mph 1026.9mb 31f
12:10am 8 10 mph 1027.2mb 31f
12:00am 8 9 mph 1027.3mb 31f
Fri 02/05 11:50pm 7 8 mph 1027.3mb 31f
11:40pm 7 8 mph 1027.6mb 31f
11:30pm 6 7 mph 1027.6mb 31f
11:20pm 6 7 mph 1027.6mb 31f
11:10pm 5 6 mph 1027.6mb 30f
11:00pm 6 7 mph 1027.7mb 30f
10:50pm 8
mph
1027.9mb 30f
10:40pm 7
mph
1028mb 30f
10:30pm 7 8 mph 1028mb 30f
10:20pm 8
mph
1028mb 30f
10:10pm 8
mph
1028mb 30f
10:00pm 6 7 mph 1028.4mb 30f
9:50pm 7
mph
1028.4mb 29f
9:40pm 6 8 mph 1028.3mb 29f
9:30pm 7 8 mph 1028.3mb 29f
9:20pm 7 8 mph 1028.6mb 29f
9:10pm 8 9 mph 1028.7mb 29f
9:00pm 8 9 mph 1028.7mb 29f
8:50pm 8 10 mph 1028.7mb 29f
8:40pm 8 9 mph 1028.6mb 29f
8:30pm 7 8 mph 1028.7mb 29f
8:20pm 7 8 mph 1028.7mb 29f
8:10pm 8 9 mph 1028.8mb 29f
8:00pm 7 9 mph 1028.8mb 29f
7:50pm 9 10 mph 1029mb 29f
7:40pm 8 9 mph 1029mb 29f
7:30pm 9 11 mph 1029.2mb 29f
7:20pm 10 13 mph 1029.3mb 29f
7:10pm 10 11 mph 1029.3mb 29f
7:00pm 11 13 mph 1029.5mb 29f
6:50pm 10 11 mph 1029.5mb 29f
6:40pm 13 15 mph 1029.5mb 29f
6:30pm 14 16 mph 1029.5mb 29f
6:20pm 11 13 mph 1029.5mb 28f
6:10pm 14 15 mph 1029.7mb 28f
6:00pm 13 15 mph 1029.7mb 28f
5:50pm 15 16 mph 1029.7mb 28f
5:40pm 15 16 mph 1029.7mb 28f
5:30pm 15 17 mph 1029.5mb 28f
5:20pm 15 16 mph 1029.4mb 28f
5:10pm 15 16 mph 1029.4mb 28f
5:00pm 14 16 mph 1029.4mb 28f
4:50pm 15 18 mph 1029.2mb 28f
4:40pm 14 15 mph 1029.2mb 28f
4:30pm 14 17 mph 1029.2mb 29f
4:20pm 15 16 mph 1029.2mb 29f
4:10pm 15 16 mph 1029mb 29f
4:00pm 14 18 mph 1029mb 29f
3:50pm 14 16 mph 1029mb 29f
3:40pm 16 18 mph 1029mb 30f
3:30pm 15 17 mph 1029mb 30f
3:20pm 14 17 mph 1029mb 30f
3:10pm 16 17 mph 1028.9mb 30f
3:00pm 16 18 mph 1028.6mb 30f
2:50pm 13 14 mph 1028.7mb 30f
2:40pm 16 17 mph 1028.7mb 30f
2:30pm 15 16 mph 1028.6mb 30f
2:20pm 13 16 mph 1028.5mb 31f
2:10pm 16 17 mph 1028.2mb 31f
2:00pm 15 17 mph 1028.2mb 31f
1:50pm 15 16 mph 1028.2mb 31f
1:40pm 15 17 mph 1028.2mb 31f
1:30pm 11 15 mph 1028.2mb 31f
1:20pm 11 14 mph 1028.2mb 31f
1:10pm 13 15 mph 1028.5mb 31f
1:00pm 14 15 mph 1028.6mb 30f
12:50pm 14 15 mph 1028.7mb 29f
12:40pm 15 16 mph 1028.7mb 29f
12:30pm 14 15 mph 1028.9mb 29f
12:20pm 15 16 mph 1028.8mb 30f
12:10pm 16 17 mph 1028.7mb 29f
12:00pm 16 18 mph 1028.7mb 30f
11:50am 14 16 mph 1028.9mb 29f
11:40am 14 15 mph 1029.2mb 30f
11:30am 17 18 mph 1029.2mb 30f
11:20am 15 16 mph 1029.2mb 30f
11:10am 15 17 mph 1029.1mb 30f
11:00am 16 18 mph 1029.1mb 30f
10:50am 14 15 mph 1029.3mb 30f
10:40am 15 16 mph 1029.2mb 30f
10:30am 16 17 mph 1029.2mb 30f
10:20am 17 18 mph 1029.2mb 30f
10:10am 16 18 mph 1029.1mb 31f
10:00am 18 21 mph 1029.1mb 30f
9:50am 16 20 mph 1029.1mb 31f
9:40am 18 20 mph 1028.9mb 31f
9:30am 18 20 mph 1029mb 31f
9:20am 16 17 mph 1028.7mb 31f
9:10am 16 17 mph 1028.6mb 31f
9:00am 14 15 mph 1028.5mb 32f
8:50am 13 15 mph 1028.5mb 31f
8:40am 13 14 mph 1028.5mb 31f
8:30am 5 7 mph 1028.6mb 31f
8:20am 8 10 mph 1028.6mb 31f
8:10am 5 9 mph 1028.6mb 30f
8:00am 3
mph
1028.4mb 30f
7:50am 3 5 mph 1028.3mb 30f
7:40am 9 11 mph 1028.2mb 32f
7:30am 10
mph
1028.1mb 32f
7:20am 8 9 mph 1028mb 32f
7:10am 9 11 mph 1027.9mb 32f
7:00am 11 13 mph 1027.9mb 32f
6:50am 9
mph
1027.7mb 32f
6:40am 9 10 mph 1027.5mb 32f
6:30am 10 11 mph 1027.5mb 32f
6:20am 8 9 mph 1027.5mb 33f
6:10am 9
mph
1027.2mb 33f
6:00am 9 10 mph 1027.2mb 33f
5:50am 10 11 mph 1027mb 33f
5:40am 9 11 mph 1027mb 33f
5:30am 10 11 mph 1027mb 33f
5:20am 9 11 mph 1027mb 33f
5:10am 11 13 mph 1027mb 33f
5:00am 11 13 mph 1027mb 33f
4:50am 9 10 mph 1026.7mb 32f
4:40am 10 11 mph 1026.7mb 33f
4:30am 10 11 mph 1026.7mb 32f
4:20am 13
mph
1026.6mb 32f
4:10am 13 14 mph 1026.6mb 33f
4:00am 14 15 mph 1026.5mb 33f
3:50am 13 15 mph 1026.4mb 33f
3:40am 14 15 mph 1026.4mb 33f
3:30am 14 15 mph 1026.4mb 33f
3:20am 15 17 mph 1026.4mb 33f
3:10am 13 16 mph 1026.4mb 33f
3:00am 15
mph
1026.5mb 33f
2:50am 15 16 mph 1026.6mb 33f
2:40am 14 16 mph 1026.7mb 33f
2:30am 13 14 mph 1026.7mb 33f
2:20am 13 14 mph 1026.5mb 33f
2:10am 15 16 mph 1026.8mb 33f
2:00am 14 15 mph 1026.7mb 33f
1:50am 14 15 mph 1026.6mb 33f
1:40am 14 16 mph 1026.5mb 33f
1:30am 16 17 mph 1026.5mb 33f
1:20am 15 18 mph 1026.3mb 33f
1:10am 15 16 mph 1026.3mb 33f
1:00am 16 18 mph 1026.3mb 33f
12:50am 18 20 mph 1026.3mb 33f
12:40am 17 20 mph 1026.3mb 32f
12:30am 18 21 mph 1026.2mb 32f
12:20am 21 22 mph 1026.2mb 32f
12:10am 20 21 mph 1026.2mb 32f
12:00am 17 20 mph 1026.2mb 32f
Thu 02/04 11:50pm 18 20 mph 1026.2mb 32f
11:40pm 15 16 mph 1026.2mb 32f
11:30pm 16 17 mph 1026.2mb 32f
11:20pm 17 20 mph 1026.1mb 32f
11:10pm 16 17 mph 1026.1mb 32f
11:00pm 17 20 mph 1026.1mb 32f
10:50pm 17 20 mph 1026.1mb 32f
10:40pm 18 20 mph 1026.2mb 31f
10:30pm 17 21 mph 1026.2mb 32f
10:20pm 20 23 mph 1026.1mb 32f
10:10pm 16 18 mph 1026.1mb 31f
10:00pm 13 15 mph 1026.1mb 31f
9:50pm 16 17 mph 1026.1mb 31f
9:40pm 15 16 mph 1026.1mb 31f
9:30pm 15 16 mph 1026.2mb 30f
9:20pm 14 15 mph 1026.1mb 30f
9:10pm 14 15 mph 1026.1mb 30f
9:00pm 13 15 mph 1026.3mb 29f
8:50pm 11 14 mph 1026.3mb 29f
8:40pm 13 14 mph 1026.3mb 29f
8:30pm 11 13 mph 1026.3mb 29f
8:20pm 11 13 mph 1026.2mb 29f
8:10pm 13 14 mph 1026.4mb 29f
8:00pm 9 10 mph 1026.4mb 28f
7:50pm 10 11 mph 1026.2mb 28f
7:40pm 10 13 mph 1026.4mb 28f
7:30pm 11 13 mph 1026.4mb 28f
7:20pm 8 9 mph 1026.4mb 28f
7:10pm 10 11 mph 1026.6mb 28f
7:00pm 8 10 mph 1026.6mb 27f
6:50pm 8 9 mph 1026.6mb 27f
6:40pm 9 10 mph 1026.4mb 27f
6:30pm 9
mph
1026.4mb 27f
6:20pm 8 10 mph 1026.4mb 27f
6:10pm 8 9 mph 1026.4mb 27f
6:00pm 9 10 mph 1026.3mb 27f
5:50pm 11 13 mph 1026.3mb 27f
5:40pm 9 11 mph 1026.3mb 27f
5:30pm 6 7 mph 1026mb 27f
5:20pm 8 10 mph 1026mb 27f
5:10pm 9 11 mph 1025.9mb 27f
5:00pm 8 10 mph 1025.8mb 27f
4:50pm 10 11 mph 1025.8mb 27f
4:40pm 8 10 mph 1025.6mb 27f
4:30pm 10 11 mph 1025.5mb 27f
4:20pm 11 14 mph 1025.3mb 27f
4:10pm 10 11 mph 1025.3mb 27f
4:00pm 13 14 mph 1025.2mb 27f
3:50pm 11 14 mph 1025mb 27f
3:40pm 10 13 mph 1024.9mb 27f
3:30pm 13 14 mph 1024.8mb 27f
3:20pm 11 13 mph 1024.8mb 27f
3:10pm 11 14 mph 1024.7mb 27f
3:00pm 13 15 mph 1024.6mb 27f
2:50pm 14 15 mph 1024.5mb 27f
2:40pm 11 13 mph 1024.4mb 27f
2:30pm 15 17 mph 1024.4mb 27f
2:20pm 14 17 mph 1024.2mb 27f
2:10pm 14 16 mph 1024.2mb 27f
2:00pm 15 16 mph 1024.1mb 27f
1:50pm 15 17 mph 1024.1mb 27f
1:40pm 16 18 mph 1024.1mb 27f
1:30pm 15 17 mph 1024mb 26f
1:20pm 13 15 mph 1024mb 27f
1:10pm 15 16 mph 1023.9mb 26f
1:00pm 15 16 mph 1023.8mb 27f
12:50pm 14 16 mph 1023.8mb 27f
12:40pm 13 14 mph 1023.8mb 26f
12:30pm 15 16 mph 1023.8mb 27f
12:20pm 16 17 mph 1023.8mb 27f
12:10pm 14 16 mph 1023.8mb 26f
12:00pm 15 17 mph 1023.9mb 26f
11:50am 14 15 mph 1024mb 26f
11:40am 15 16 mph 1024.1mb 27f
11:30am 15 16 mph 1024.1mb 27f
11:20am 17 20 mph 1024.1mb 27f
11:10am 15 17 mph 1024.2mb 27f
11:00am 14 15 mph 1024.4mb 27f
10:50am 13 17 mph 1024.4mb 26f
10:40am 15 16 mph 1024.5mb 26f
10:30am 17 20 mph 1024.5mb 27f
10:20am 16 18 mph 1024.3mb 27f
10:10am 20 22 mph 1024.3mb 26f
10:00am 20 22 mph 1024.2mb 27f
9:50am 18 21 mph 1024.1mb 27f
9:40am 18 21 mph 1024.1mb 27f
9:30am 16 18 mph 1023.9mb 27f
9:20am 18 21 mph 1023.9mb 27f
9:10am 17 22 mph 1023.8mb 27f
9:00am 18 22 mph 1023.7mb 27f
8:50am 16 20 mph 1023.5mb 27f
8:40am 20 22 mph 1023.5mb 26f
8:30am 17 21 mph 1023.5mb 27f
8:20am 18 21 mph 1023.3mb 27f
8:10am 18 22 mph 1023.1mb 27f
8:00am 21 23 mph 1023.1mb 27f
7:50am 23 24 mph 1022.8mb 27f
7:40am 20 24 mph 1022.6mb 28f
7:30am 15 18 mph 1022.6mb 28f
7:20am 15 17 mph 1022.3mb 28f
7:10am 14 15 mph 1022.2mb 28f
7:00am 14 17 mph 1022.1mb 28f
6:50am 16 17 mph 1022mb 28f
6:40am 16 18 mph 1021.8mb 28f
6:30am 16 17 mph 1021.5mb 28f
6:20am 16 20 mph 1021.5mb 28f
6:10am 18 20 mph 1021.4mb 29f
6:00am 18 21 mph 1021.2mb 29f
5:50am 16 18 mph 1021mb 29f
5:40am 17 18 mph 1021mb 29f
5:30am 16 18 mph 1020.8mb 29f
5:20am 16 17 mph 1020.8mb 29f
5:10am 16 17 mph 1020.8mb 29f
5:00am 17 18 mph 1020.8mb 29f
4:50am 15 16 mph 1020.7mb 29f
4:40am 17 18 mph 1020.6mb 29f
4:30am 16 17 mph 1020.5mb 29f
4:20am 17 20 mph 1020.3mb 29f
4:10am 17 20 mph 1020.3mb 30f
4:00am 17 21 mph 1020.3mb 30f
3:50am 16 17 mph 1020.1mb 30f
3:40am 18 20 mph 1019.8mb 30f
3:30am 17 18 mph 1019.6mb 30f
3:20am 18 20 mph 1019.6mb 30f
3:10am 17 18 mph 1019.6mb 30f
3:00am 18 20 mph 1019.3mb 31f
2:50am 16 17 mph 1019.4mb 31f
2:40am 16 17 mph 1019.3mb 30f
2:30am 18 20 mph 1019.3mb 31f
2:20am 16 17 mph 1019.1mb 31f